Aeroporto :
LOGIN :

Iscrizione | Disclaimer

   EN    FR    IT 

 










Sommario :    VFR   VFR Marginale   IFR   IFR Intensivo   IFR Molto Intensivo
Visibilità : 
Base nubi : 
>= 8 km
>= 3000ft
5 / 8 km
1000 / 3000 ft
1500m / 5 km
500 / 1000 ft
800 / 1500m
200 / 500 ft
< 800m
< 200 ft
Simboli :   Temporali  Nebbia  Neve Forte  Precipitazioni Forti  Vento > 20 kt
SIGMETs :   Varie  Temporali  Ghiacco  Turbolenza  Onda orograficha  Ceneri Vulcaniche






- Altitudine del aeroporto : 675 ft
- Codice IATA : RZE


EPRZ - Rzeszow-Jasionka

ULTIMO METAR :
  • 091730Z 27006KT CAVOK 17/M05 Q1017

METARs OBSOLETI :
  • 091700Z 29009KT CAVOK 19/M05 Q1017
  • 091630Z 27011KT CAVOK 19/M04 Q1017
  • 091600Z 28014KT CAVOK 20/M05 Q1017
  • 091530Z 28012KT CAVOK 21/M06 Q1017
  • 091500Z 27013KT 250V310 CAVOK 22/M05 Q1017

TAF TAF EPRZ
Valido dal 09 a 18 ore il 10 a 18 ore UTC


091730Z 0918/1018 27013KT CAVOK
BECMG 0918/0921 34009KT
TEMPO 0919/0921 34015G25KT SCT040TCU



MetMap, La meteo Aeronautica in un colpo d'occhio ! - Copyright ORBIFLY Dicembre 2007 - Disclaimer

ORBIFLY MET'MAP TEAM :

Programmazione e sviluppo : Alexandra Zaïnal
Concezione : Baudouin d'Aumeries
Aiuto per la programmazione : Marc-Olivier Méhu
Supporto tecnico e logistico : Manuel Goepfert
Aiuto per la traduzione : Arnaldo La Scala

Contatto : metmap@orbifly.com




FONTI E CREDITI :

   NOAA